sensor_id;sensor_type;location;lat;lon;timestamp;pressure;altitude;pressure_sealevel;temperature;humidity
5812;BME280;2932;52.400;9.558;2024-01-30T00:02:07;102172.53;;;13.63;55.37
5812;BME280;2932;52.400;9.558;2024-01-30T00:04:33;102172.75;;;13.58;54.93
5812;BME280;2932;52.400;9.558;2024-01-30T00:06:58;102182.38;;;13.44;55.31
5812;BME280;2932;52.400;9.558;2024-01-30T00:09:23;102179.59;;;13.35;55.78
5812;BME280;2932;52.400;9.558;2024-01-30T00:11:48;102180.59;;;13.39;56.53
5812;BME280;2932;52.400;9.558;2024-01-30T00:14:14;102167.50;;;13.40;56.76
5812;BME280;2932;52.400;9.558;2024-01-30T00:16:39;102175.19;;;13.43;56.66
5812;BME280;2932;52.400;9.558;2024-01-30T00:19:04;102172.75;;;13.41;56.77
5812;BME280;2932;52.400;9.558;2024-01-30T00:21:30;102169.31;;;13.44;56.60
5812;BME280;2932;52.400;9.558;2024-01-30T00:23:55;102165.38;;;13.28;56.05
5812;BME280;2932;52.400;9.558;2024-01-30T00:26:20;102161.63;;;13.32;56.86
5812;BME280;2932;52.400;9.558;2024-01-30T00:28:46;102163.56;;;13.32;56.76
5812;BME280;2932;52.400;9.558;2024-01-30T00:31:11;102156.38;;;13.14;56.38
5812;BME280;2932;52.400;9.558;2024-01-30T00:33:40;102153.44;;;13.27;57.58
5812;BME280;2932;52.400;9.558;2024-01-30T00:36:07;102156.06;;;13.32;57.43
5812;BME280;2932;52.400;9.558;2024-01-30T00:38:34;102162.09;;;13.52;56.59
5812;BME280;2932;52.400;9.558;2024-01-30T00:40:59;102160.63;;;13.37;57.32
5812;BME280;2932;52.400;9.558;2024-01-30T00:43:25;102160.13;;;13.26;57.96
5812;BME280;2932;52.400;9.558;2024-01-30T00:45:51;102160.31;;;13.30;57.99
5812;BME280;2932;52.400;9.558;2024-01-30T00:48:17;102152.94;;;13.43;58.09
5812;BME280;2932;52.400;9.558;2024-01-30T00:50:43;102160.47;;;13.51;58.27
5812;BME280;2932;52.400;9.558;2024-01-30T00:53:08;102160.47;;;13.59;58.09
5812;BME280;2932;52.400;9.558;2024-01-30T00:55:34;102159.78;;;13.62;57.98
5812;BME280;2932;52.400;9.558;2024-01-30T00:57:59;102160.75;;;13.66;57.63
5812;BME280;2932;52.400;9.558;2024-01-30T01:00:24;102157.00;;;13.62;57.50
5812;BME280;2932;52.400;9.558;2024-01-30T01:02:56;102162.09;;;13.52;57.91
5812;BME280;2932;52.400;9.558;2024-01-30T01:05:22;102159.81;;;13.28;58.72
5812;BME280;2932;52.400;9.558;2024-01-30T01:07:47;102168.97;;;13.20;58.74
5812;BME280;2932;52.400;9.558;2024-01-30T01:10:13;102167.81;;;13.29;58.82
5812;BME280;2932;52.400;9.558;2024-01-30T01:12:39;102169.63;;;13.34;58.68
5812;BME280;2932;52.400;9.558;2024-01-30T01:15:05;102174.03;;;13.26;58.72
5812;BME280;2932;52.400;9.558;2024-01-30T01:17:30;102168.31;;;13.49;58.53
5812;BME280;2932;52.400;9.558;2024-01-30T01:19:59;102165.38;;;13.45;58.96
5812;BME280;2932;52.400;9.558;2024-01-30T01:22:24;102166.03;;;13.59;58.54
5812;BME280;2932;52.400;9.558;2024-01-30T01:24:49;102171.75;;;13.54;58.30
5812;BME280;2932;52.400;9.558;2024-01-30T01:27:14;102171.41;;;13.73;58.13
5812;BME280;2932;52.400;9.558;2024-01-30T01:29:40;102171.22;;;13.78;57.94
5812;BME280;2932;52.400;9.558;2024-01-30T01:32:05;102167.31;;;13.79;57.94
5812;BME280;2932;52.400;9.558;2024-01-30T01:34:30;102170.56;;;13.81;58.08
5812;BME280;2932;52.400;9.558;2024-01-30T01:36:56;102165.81;;;13.82;57.51
5812;BME280;2932;52.400;9.558;2024-01-30T01:39:22;102155.66;;;13.86;57.45
5812;BME280;2932;52.400;9.558;2024-01-30T01:41:49;102157.16;;;13.75;57.39
5812;BME280;2932;52.400;9.558;2024-01-30T01:44:14;102157.81;;;13.80;57.60
5812;BME280;2932;52.400;9.558;2024-01-30T01:46:40;102155.19;;;13.84;57.61
5812;BME280;2932;52.400;9.558;2024-01-30T01:49:06;102157.66;;;13.77;57.85
5812;BME280;2932;52.400;9.558;2024-01-30T01:51:34;102152.75;;;13.65;58.37
5812;BME280;2932;52.400;9.558;2024-01-30T01:54:03;102152.91;;;13.77;58.14
5812;BME280;2932;52.400;9.558;2024-01-30T01:56:29;102146.84;;;13.66;58.37
5812;BME280;2932;52.400;9.558;2024-01-30T01:58:59;102143.13;;;13.54;58.80
5812;BME280;2932;52.400;9.558;2024-01-30T02:01:25;102142.81;;;13.47;58.86
5812;BME280;2932;52.400;9.558;2024-01-30T02:03:51;102137.41;;;13.59;59.12
5812;BME280;2932;52.400;9.558;2024-01-30T02:06:17;102133.66;;;13.46;59.36
5812;BME280;2932;52.400;9.558;2024-01-30T02:08:42;102128.91;;;13.38;59.70
5812;BME280;2932;52.400;9.558;2024-01-30T02:11:08;102133.44;;;13.60;59.39
5812;BME280;2932;52.400;9.558;2024-01-30T02:13:35;102129.22;;;13.54;59.64
5812;BME280;2932;52.400;9.558;2024-01-30T02:16:00;102128.41;;;13.53;59.67
5812;BME280;2932;52.400;9.558;2024-01-30T02:18:26;102127.75;;;13.56;59.54
5812;BME280;2932;52.400;9.558;2024-01-30T02:20:54;102116.41;;;13.70;59.21
5812;BME280;2932;52.400;9.558;2024-01-30T02:23:23;102115.28;;;13.62;59.26
5812;BME280;2932;52.400;9.558;2024-01-30T02:25:50;102116.75;;;13.60;59.41
5812;BME280;2932;52.400;9.558;2024-01-30T02:28:18;102104.22;;;13.54;59.97
5812;BME280;2932;52.400;9.558;2024-01-30T02:30:43;102104.69;;;13.56;59.94
5812;BME280;2932;52.400;9.558;2024-01-30T02:33:09;102103.69;;;13.60;59.84
5812;BME280;2932;52.400;9.558;2024-01-30T02:35:34;102096.94;;;13.70;59.90
5812;BME280;2932;52.400;9.558;2024-01-30T02:38:00;102102.34;;;13.75;59.62
5812;BME280;2932;52.400;9.558;2024-01-30T02:40:26;102094.94;;;13.88;59.56
5812;BME280;2932;52.400;9.558;2024-01-30T02:42:51;102095.94;;;13.83;59.27
5812;BME280;2932;52.400;9.558;2024-01-30T02:45:16;102088.41;;;13.84;59.44
5812;BME280;2932;52.400;9.558;2024-01-30T02:47:42;102090.38;;;13.83;59.77
5812;BME280;2932;52.400;9.558;2024-01-30T02:50:08;102087.91;;;13.90;59.01
5812;BME280;2932;52.400;9.558;2024-01-30T02:52:33;102078.91;;;13.93;59.24
5812;BME280;2932;52.400;9.558;2024-01-30T02:54:59;102078.25;;;13.88;59.17
5812;BME280;2932;52.400;9.558;2024-01-30T02:57:24;102081.19;;;13.91;59.04
5812;BME280;2932;52.400;9.558;2024-01-30T02:59:50;102079.72;;;13.85;59.13
5812;BME280;2932;52.400;9.558;2024-01-30T03:02:15;102075.81;;;13.86;59.73
5812;BME280;2932;52.400;9.558;2024-01-30T03:04:43;102073.53;;;13.80;59.46
5812;BME280;2932;52.400;9.558;2024-01-30T03:07:09;102074.03;;;13.82;59.46
5812;BME280;2932;52.400;9.558;2024-01-30T03:09:34;102072.06;;;13.82;59.21
5812;BME280;2932;52.400;9.558;2024-01-30T03:12:00;102078.91;;;13.85;59.55
5812;BME280;2932;52.400;9.558;2024-01-30T03:14:26;102069.09;;;13.87;59.37
5812;BME280;2932;52.400;9.558;2024-01-30T03:16:51;102067.78;;;13.85;59.49
5812;BME280;2932;52.400;9.558;2024-01-30T03:19:16;102076.16;;;13.76;59.75
5812;BME280;2932;52.400;9.558;2024-01-30T03:21:42;102068.78;;;13.80;59.74
5812;BME280;2932;52.400;9.558;2024-01-30T03:24:07;102066.47;;;13.91;59.34
5812;BME280;2932;52.400;9.558;2024-01-30T03:26:32;102069.28;;;13.82;59.39
5812;BME280;2932;52.400;9.558;2024-01-30T03:28:58;102066.16;;;13.84;59.28
5812;BME280;2932;52.400;9.558;2024-01-30T03:31:23;102064.03;;;13.81;59.29
5812;BME280;2932;52.400;9.558;2024-01-30T03:33:49;102066.50;;;13.82;59.22
5812;BME280;2932;52.400;9.558;2024-01-30T03:36:15;102062.56;;;13.83;59.36
5812;BME280;2932;52.400;9.558;2024-01-30T03:38:41;102062.41;;;13.80;59.24
5812;BME280;2932;52.400;9.558;2024-01-30T03:41:09;102065.84;;;13.77;59.40
5812;BME280;2932;52.400;9.558;2024-01-30T03:43:35;102058.31;;;13.77;59.14
5812;BME280;2932;52.400;9.558;2024-01-30T03:46:01;102062.56;;;13.83;58.66
5812;BME280;2932;52.400;9.558;2024-01-30T03:48:27;102062.91;;;13.73;59.09
5812;BME280;2932;52.400;9.558;2024-01-30T03:50:52;102066.03;;;13.72;58.69
5812;BME280;2932;52.400;9.558;2024-01-30T03:53:17;102062.28;;;13.67;58.73
5812;BME280;2932;52.400;9.558;2024-01-30T03:55:43;102059.72;;;13.54;59.21
5812;BME280;2932;52.400;9.558;2024-01-30T03:58:08;102060.19;;;13.56;59.39
5812;BME280;2932;52.400;9.558;2024-01-30T04:00:34;102064.63;;;13.48;59.40
5812;BME280;2932;52.400;9.558;2024-01-30T04:02:59;102064.81;;;13.43;59.16
5812;BME280;2932;52.400;9.558;2024-01-30T04:05:24;102065.63;;;13.44;59.19
5812;BME280;2932;52.400;9.558;2024-01-30T04:07:50;102054.19;;;13.28;59.04
5812;BME280;2932;52.400;9.558;2024-01-30T04:10:15;102063.00;;;13.30;59.01
5812;BME280;2932;52.400;9.558;2024-01-30T04:12:41;102060.44;;;13.16;58.91
5812;BME280;2932;52.400;9.558;2024-01-30T04:15:06;102057.78;;;13.11;59.10
5812;BME280;2932;52.400;9.558;2024-01-30T04:17:32;102056.50;;;13.17;58.91
5812;BME280;2932;52.400;9.558;2024-01-30T04:19:58;102054.19;;;13.11;59.44
5812;BME280;2932;52.400;9.558;2024-01-30T04:22:23;102057.63;;;13.08;59.63
5812;BME280;2932;52.400;9.558;2024-01-30T04:24:52;102050.28;;;13.20;59.41
5812;BME280;2932;52.400;9.558;2024-01-30T04:27:19;102050.09;;;13.08;60.03
5812;BME280;2932;52.400;9.558;2024-01-30T04:29:45;102050.09;;;13.34;59.91
5812;BME280;2932;52.400;9.558;2024-01-30T04:32:10;102049.28;;;13.25;59.52
5812;BME280;2932;52.400;9.558;2024-01-30T04:34:36;102054.69;;;13.13;59.91
5812;BME280;2932;52.400;9.558;2024-01-30T04:37:01;102049.81;;;13.18;59.52
5812;BME280;2932;52.400;9.558;2024-01-30T04:39:27;102054.53;;;13.09;59.94
5812;BME280;2932;52.400;9.558;2024-01-30T04:41:52;102051.91;;;13.04;59.91
5812;BME280;2932;52.400;9.558;2024-01-30T04:44:17;102046.84;;;13.06;59.68
5812;BME280;2932;52.400;9.558;2024-01-30T04:46:43;102058.09;;;12.92;60.04
5812;BME280;2932;52.400;9.558;2024-01-30T04:49:08;102058.78;;;12.72;60.01
5812;BME280;2932;52.400;9.558;2024-01-30T04:51:33;102053.53;;;12.62;60.35
5812;BME280;2932;52.400;9.558;2024-01-30T04:53:59;102051.59;;;12.71;60.60
5812;BME280;2932;52.400;9.558;2024-01-30T04:56:24;102051.91;;;12.78;60.45
5812;BME280;2932;52.400;9.558;2024-01-30T04:58:51;102038.50;;;12.80;60.92
5812;BME280;2932;52.400;9.558;2024-01-30T05:01:17;102036.38;;;13.12;60.83
5812;BME280;2932;52.400;9.558;2024-01-30T05:03:42;102033.75;;;13.15;60.60
5812;BME280;2932;52.400;9.558;2024-01-30T05:06:08;102047.03;;;13.18;60.34
5812;BME280;2932;52.400;9.558;2024-01-30T05:08:33;102051.91;;;13.13;60.63
5812;BME280;2932;52.400;9.558;2024-01-30T05:11:01;102040.31;;;13.19;60.32
5812;BME280;2932;52.400;9.558;2024-01-30T05:13:29;102041.59;;;13.30;60.01
5812;BME280;2932;52.400;9.558;2024-01-30T05:15:54;102046.84;;;13.23;59.49
5812;BME280;2932;52.400;9.558;2024-01-30T05:18:20;102041.28;;;13.06;59.29
5812;BME280;2932;52.400;9.558;2024-01-30T05:20:45;102051.25;;;12.90;59.38
5812;BME280;2932;52.400;9.558;2024-01-30T05:23:10;102049.78;;;12.75;59.49
5812;BME280;2932;52.400;9.558;2024-01-30T05:25:36;102052.72;;;12.61;59.74
5812;BME280;2932;52.400;9.558;2024-01-30T05:28:01;102050.41;;;12.55;60.48
5812;BME280;2932;52.400;9.558;2024-01-30T05:30:26;102042.25;;;12.58;60.64
5812;BME280;2932;52.400;9.558;2024-01-30T05:32:51;102046.31;;;12.52;61.08
5812;BME280;2932;52.400;9.558;2024-01-30T05:35:17;102043.56;;;12.61;60.68
5812;BME280;2932;52.400;9.558;2024-01-30T05:37:43;102044.56;;;12.65;60.98
5812;BME280;2932;52.400;9.558;2024-01-30T05:40:08;102051.41;;;12.67;60.86
5812;BME280;2932;52.400;9.558;2024-01-30T05:42:34;102039.16;;;12.68;60.58
5812;BME280;2932;52.400;9.558;2024-01-30T05:44:59;102047.50;;;12.77;61.17
5812;BME280;2932;52.400;9.558;2024-01-30T05:47:25;102048.16;;;12.74;61.18
5812;BME280;2932;52.400;9.558;2024-01-30T05:49:50;102043.25;;;12.88;61.01
5812;BME280;2932;52.400;9.558;2024-01-30T05:52:15;102042.59;;;12.91;61.07
5812;BME280;2932;52.400;9.558;2024-01-30T05:54:41;102045.69;;;12.90;61.19
5812;BME280;2932;52.400;9.558;2024-01-30T05:57:06;102043.09;;;13.11;60.93
5812;BME280;2932;52.400;9.558;2024-01-30T05:59:32;102040.78;;;13.04;60.74
5812;BME280;2932;52.400;9.558;2024-01-30T06:01:57;102031.00;;;13.07;61.02
5812;BME280;2932;52.400;9.558;2024-01-30T06:04:23;102037.19;;;13.12;60.53
5812;BME280;2932;52.400;9.558;2024-01-30T06:06:48;102034.75;;;13.02;60.63
5812;BME280;2932;52.400;9.558;2024-01-30T06:09:13;102036.06;;;13.05;60.65
5812;BME280;2932;52.400;9.558;2024-01-30T06:11:39;102031.81;;;13.07;60.43
5812;BME280;2932;52.400;9.558;2024-01-30T06:14:04;102027.88;;;12.99;60.43
5812;BME280;2932;52.400;9.558;2024-01-30T06:16:30;102023.78;;;13.06;60.25
5812;BME280;2932;52.400;9.558;2024-01-30T06:18:56;102028.88;;;12.95;60.08
5812;BME280;2932;52.400;9.558;2024-01-30T06:21:22;102021.50;;;12.90;59.97
5812;BME280;2932;52.400;9.558;2024-01-30T06:23:47;102018.91;;;12.94;59.68
5812;BME280;2932;52.400;9.558;2024-01-30T06:26:12;102023.78;;;12.80;60.04
5812;BME280;2932;52.400;9.558;2024-01-30T06:28:38;102016.47;;;12.66;60.27
5812;BME280;2932;52.400;9.558;2024-01-30T06:31:03;102019.56;;;12.65;60.50
5812;BME280;2932;52.400;9.558;2024-01-30T06:33:28;102020.53;;;12.60;60.50
5812;BME280;2932;52.400;9.558;2024-01-30T06:35:54;102018.41;;;12.57;60.29
5812;BME280;2932;52.400;9.558;2024-01-30T06:38:19;102015.13;;;12.47;60.30
5812;BME280;2932;52.400;9.558;2024-01-30T06:40:44;102014.13;;;12.43;60.34
5812;BME280;2932;52.400;9.558;2024-01-30T06:43:10;102014.31;;;12.38;60.77
5812;BME280;2932;52.400;9.558;2024-01-30T06:45:35;102019.84;;;12.29;60.82
5812;BME280;2932;52.400;9.558;2024-01-30T06:48:00;102016.75;;;12.30;60.92
5812;BME280;2932;52.400;9.558;2024-01-30T06:50:26;102025.72;;;12.27;60.94
5812;BME280;2932;52.400;9.558;2024-01-30T06:52:51;102024.88;;;12.18;60.96
5812;BME280;2932;52.400;9.558;2024-01-30T06:55:18;102018.22;;;12.28;60.88
5812;BME280;2932;52.400;9.558;2024-01-30T06:57:43;102028.63;;;12.22;61.05
5812;BME280;2932;52.400;9.558;2024-01-30T07:00:09;102025.53;;;12.15;60.81
5812;BME280;2932;52.400;9.558;2024-01-30T07:02:34;102025.16;;;12.08;61.40
5812;BME280;2932;52.400;9.558;2024-01-30T07:04:59;102033.69;;;12.20;61.95
5812;BME280;2932;52.400;9.558;2024-01-30T07:07:25;102028.50;;;12.27;62.17
5812;BME280;2932;52.400;9.558;2024-01-30T07:09:50;102020.69;;;12.38;62.29
5812;BME280;2932;52.400;9.558;2024-01-30T07:12:20;102020.03;;;12.50;62.33
5812;BME280;2932;52.400;9.558;2024-01-30T07:14:46;102019.22;;;12.66;61.66
5812;BME280;2932;52.400;9.558;2024-01-30T07:17:11;102023.81;;;12.71;61.47
5812;BME280;2932;52.400;9.558;2024-01-30T07:19:36;102023.00;;;12.62;61.26
5812;BME280;2932;52.400;9.558;2024-01-30T07:22:02;102027.09;;;12.73;61.39
5812;BME280;2932;52.400;9.558;2024-01-30T07:24:27;102020.38;;;12.74;61.13
5812;BME280;2932;52.400;9.558;2024-01-30T07:26:52;102023.81;;;12.71;60.94
5812;BME280;2932;52.400;9.558;2024-01-30T07:29:18;102025.13;;;12.65;60.83
5812;BME280;2932;52.400;9.558;2024-01-30T07:31:43;102020.38;;;12.65;61.13
5812;BME280;2932;52.400;9.558;2024-01-30T07:34:09;102023.47;;;12.64;61.04
5812;BME280;2932;52.400;9.558;2024-01-30T07:36:34;102020.53;;;12.60;60.94
5812;BME280;2932;52.400;9.558;2024-01-30T07:38:59;102022.50;;;12.68;60.87
5812;BME280;2932;52.400;9.558;2024-01-30T07:41:25;102023.97;;;12.75;60.87
5812;BME280;2932;52.400;9.558;2024-01-30T07:43:50;102023.16;;;12.65;60.52
5812;BME280;2932;52.400;9.558;2024-01-30T07:46:16;102015.16;;;12.64;60.59
5812;BME280;2932;52.400;9.558;2024-01-30T07:48:41;102011.53;;;12.55;61.19
5812;BME280;2932;52.400;9.558;2024-01-30T07:51:06;102020.19;;;12.53;61.04
5812;BME280;2932;52.400;9.558;2024-01-30T07:53:32;102016.47;;;12.75;60.97
5812;BME280;2932;52.400;9.558;2024-01-30T07:55:57;102011.22;;;12.82;60.71
5812;BME280;2932;52.400;9.558;2024-01-30T07:58:22;102014.00;;;12.82;60.68
5812;BME280;2932;52.400;9.558;2024-01-30T08:00:49;102021.19;;;12.92;60.86
5812;BME280;2932;52.400;9.558;2024-01-30T08:03:14;102007.94;;;12.89;60.63
5812;BME280;2932;52.400;9.558;2024-01-30T08:05:41;102000.25;;;12.94;60.55
5812;BME280;2932;52.400;9.558;2024-01-30T08:08:07;102002.88;;;12.99;60.37
5812;BME280;2932;52.400;9.558;2024-01-30T08:10:32;102006.13;;;13.10;60.55
5812;BME280;2932;52.400;9.558;2024-01-30T08:12:57;101998.47;;;13.16;60.53
5812;BME280;2932;52.400;9.558;2024-01-30T08:15:23;101997.63;;;13.15;60.28
5812;BME280;2932;52.400;9.558;2024-01-30T08:17:48;101997.81;;;13.19;60.19
5812;BME280;2932;52.400;9.558;2024-01-30T08:20:13;101998.28;;;13.21;60.36
5812;BME280;2932;52.400;9.558;2024-01-30T08:22:39;102007.09;;;13.31;60.16
5812;BME280;2932;52.400;9.558;2024-01-30T08:25:06;102002.66;;;13.39;60.08
5812;BME280;2932;52.400;9.558;2024-01-30T08:27:31;102005.13;;;13.41;60.00
5812;BME280;2932;52.400;9.558;2024-01-30T08:29:58;102005.44;;;13.48;59.71
5812;BME280;2932;52.400;9.558;2024-01-30T08:32:23;102007.91;;;13.32;59.87
5812;BME280;2932;52.400;9.558;2024-01-30T08:34:49;101997.59;;;13.32;60.08
5812;BME280;2932;52.400;9.558;2024-01-30T08:37:14;102005.13;;;13.41;60.19
5812;BME280;2932;52.400;9.558;2024-01-30T08:39:42;102002.41;;;13.61;59.82
5812;BME280;2932;52.400;9.558;2024-01-30T08:42:10;102006.34;;;13.60;59.79
5812;BME280;2932;52.400;9.558;2024-01-30T08:44:36;101999.94;;;13.68;59.76
5812;BME280;2932;52.400;9.558;2024-01-30T08:47:02;102001.75;;;13.64;60.22
5812;BME280;2932;52.400;9.558;2024-01-30T08:49:28;101995.81;;;13.75;59.64
5812;BME280;2932;52.400;9.558;2024-01-30T08:51:53;101993.16;;;13.87;59.53
5812;BME280;2932;52.400;9.558;2024-01-30T08:54:19;102000.66;;;13.95;59.67
5812;BME280;2932;52.400;9.558;2024-01-30T08:56:44;101992.44;;;13.98;59.49
5812;BME280;2932;52.400;9.558;2024-01-30T08:59:12;101993.03;;;14.04;59.66
5812;BME280;2932;52.400;9.558;2024-01-30T09:01:37;101997.94;;;14.07;59.51
5812;BME280;2932;52.400;9.558;2024-01-30T09:04:03;101989.44;;;14.03;59.49
5812;BME280;2932;52.400;9.558;2024-01-30T09:06:28;101988.88;;;14.19;59.69
5812;BME280;2932;52.400;9.558;2024-01-30T09:08:54;101980.75;;;14.34;59.09
5812;BME280;2932;52.400;9.558;2024-01-30T09:11:19;101989.63;;;14.28;58.84
5812;BME280;2932;52.400;9.558;2024-01-30T09:13:47;101991.22;;;14.38;59.13
5812;BME280;2932;52.400;9.558;2024-01-30T09:16:13;101987.91;;;14.44;59.14
5812;BME280;2932;52.400;9.558;2024-01-30T09:18:38;101987.63;;;14.58;58.80
5812;BME280;2932;52.400;9.558;2024-01-30T09:21:04;101988.19;;;14.72;58.74
5812;BME280;2932;52.400;9.558;2024-01-30T09:23:29;101993.66;;;14.81;58.67
5812;BME280;2932;52.400;9.558;2024-01-30T09:25:55;101994.56;;;14.73;58.23
5812;BME280;2932;52.400;9.558;2024-01-30T09:28:20;101986.69;;;14.75;58.10
5812;BME280;2932;52.400;9.558;2024-01-30T09:30:46;101988.22;;;14.84;58.01
5812;BME280;2932;52.400;9.558;2024-01-30T09:33:11;101992.69;;;14.97;57.92
5812;BME280;2932;52.400;9.558;2024-01-30T09:35:36;101988.19;;;15.05;57.75
5812;BME280;2932;52.400;9.558;2024-01-30T09:38:02;101998.31;;;15.10;57.46
5812;BME280;2932;52.400;9.558;2024-01-30T09:40:28;102007.84;;;15.09;57.08
5812;BME280;2932;52.400;9.558;2024-01-30T09:42:54;102006.56;;;15.06;57.39
5812;BME280;2932;52.400;9.558;2024-01-30T09:45:23;102008.66;;;15.09;57.35
5812;BME280;2932;52.400;9.558;2024-01-30T09:47:49;101990.91;;;15.14;56.95
5812;BME280;2932;52.400;9.558;2024-01-30T09:50:15;102009.81;;;15.08;57.24
5812;BME280;2932;52.400;9.558;2024-01-30T09:52:40;102001.47;;;15.20;57.46
5812;BME280;2932;52.400;9.558;2024-01-30T09:55:07;102004.66;;;15.31;57.19
5812;BME280;2932;52.400;9.558;2024-01-30T09:57:33;101993.88;;;15.42;57.04
5812;BME280;2932;52.400;9.558;2024-01-30T09:59:59;101993.09;;;15.53;56.83
5812;BME280;2932;52.400;9.558;2024-01-30T10:02:24;101990.53;;;15.48;56.49
5812;BME280;2932;52.400;9.558;2024-01-30T10:04:51;101988.69;;;15.64;56.33
5812;BME280;2932;52.400;9.558;2024-01-30T10:07:20;101993.13;;;15.65;56.32
5812;BME280;2932;52.400;9.558;2024-01-30T10:09:46;101990.09;;;15.71;56.46
5812;BME280;2932;52.400;9.558;2024-01-30T10:12:12;101988.25;;;15.75;56.26
5812;BME280;2932;52.400;9.558;2024-01-30T10:14:41;101980.78;;;16.03;56.16
5812;BME280;2932;52.400;9.558;2024-01-30T10:17:11;101986.50;;;16.19;55.90
5812;BME280;2932;52.400;9.558;2024-01-30T10:19:40;101985.91;;;16.25;55.56
5812;BME280;2932;52.400;9.558;2024-01-30T10:22:06;101981.25;;;16.29;55.59
5812;BME280;2932;52.400;9.558;2024-01-30T10:24:33;101982.75;;;16.39;55.31
5812;BME280;2932;52.400;9.558;2024-01-30T10:26:59;101974.22;;;16.48;55.45
5812;BME280;2932;52.400;9.558;2024-01-30T10:29:24;101977.16;;;16.39;55.26
5812;BME280;2932;52.400;9.558;2024-01-30T10:32:02;101974.44;;;16.55;55.27
5812;BME280;2932;52.400;9.558;2024-01-30T10:34:28;101975.44;;;16.62;55.07
5812;BME280;2932;52.400;9.558;2024-01-30T10:39:28;101978.63;;;16.89;54.86
5812;BME280;2932;52.400;9.558;2024-01-30T10:41:56;101981.06;;;16.90;54.71
5812;BME280;2932;52.400;9.558;2024-01-30T10:44:28;101981.31;;;16.85;54.94
5812;BME280;2932;52.400;9.558;2024-01-30T10:47:00;101974.22;;;16.88;54.80
5812;BME280;2932;52.400;9.558;2024-01-30T10:49:28;101969.63;;;16.95;55.00
5812;BME280;2932;52.400;9.558;2024-01-30T10:51:54;101972.94;;;16.85;54.63
5812;BME280;2932;52.400;9.558;2024-01-30T10:54:20;101969.91;;;16.90;54.88
5812;BME280;2932;52.400;9.558;2024-01-30T10:56:46;101966.94;;;16.99;54.96
5812;BME280;2932;52.400;9.558;2024-01-30T10:59:11;101954.38;;;16.93;55.03
5812;BME280;2932;52.400;9.558;2024-01-30T11:01:38;101953.41;;;17.01;54.64
5812;BME280;2932;52.400;9.558;2024-01-30T11:04:04;101959.31;;;16.84;55.22
5812;BME280;2932;52.400;9.558;2024-01-30T11:06:29;101962.94;;;16.84;54.82
5812;BME280;2932;52.400;9.558;2024-01-30T11:09:05;101964.63;;;16.73;55.07
5812;BME280;2932;52.400;9.558;2024-01-30T11:12:00;101958.22;;;16.73;55.42
5812;BME280;2932;52.400;9.558;2024-01-30T11:14:34;101961.72;;;16.70;55.61
5812;BME280;2932;52.400;9.558;2024-01-30T11:16:59;101963.25;;;16.67;55.85
5812;BME280;2932;52.400;9.558;2024-01-30T11:19:26;101950.28;;;16.75;55.62
5812;BME280;2932;52.400;9.558;2024-01-30T11:21:55;101954.25;;;16.74;55.67
5812;BME280;2932;52.400;9.558;2024-01-30T11:24:22;101962.41;;;16.79;55.98
5812;BME280;2932;52.400;9.558;2024-01-30T11:26:58;101953.56;;;16.77;56.17
5812;BME280;2932;52.400;9.558;2024-01-30T11:29:29;101957.41;;;16.72;56.17
5812;BME280;2932;52.400;9.558;2024-01-30T11:31:56;101953.47;;;16.89;56.44
5812;BME280;2932;52.400;9.558;2024-01-30T11:34:22;101945.09;;;16.89;56.00
5812;BME280;2932;52.400;9.558;2024-01-30T11:36:52;101951.38;;;17.14;56.38
5812;BME280;2932;52.400;9.558;2024-01-30T11:39:24;101948.16;;;17.43;55.83
5812;BME280;2932;52.400;9.558;2024-01-30T11:41:51;101942.03;;;17.69;55.70
5812;BME280;2932;52.400;9.558;2024-01-30T11:44:18;101932.19;;;17.75;54.85
5812;BME280;2932;52.400;9.558;2024-01-30T11:46:43;101933.91;;;18.15;54.67
5812;BME280;2932;52.400;9.558;2024-01-30T11:49:08;101922.00;;;18.56;54.20
5812;BME280;2932;52.400;9.558;2024-01-30T11:51:34;101919.41;;;18.28;53.45
5812;BME280;2932;52.400;9.558;2024-01-30T11:53:59;101922.69;;;17.48;54.59
5812;BME280;2932;52.400;9.558;2024-01-30T11:56:24;101911.22;;;17.69;54.96
5812;BME280;2932;52.400;9.558;2024-01-30T11:58:52;101913.31;;;17.41;55.56
5812;BME280;2932;52.400;9.558;2024-01-30T12:01:17;101901.19;;;17.84;55.38
5812;BME280;2932;52.400;9.558;2024-01-30T12:03:48;101897.59;;;18.76;53.68
5812;BME280;2932;52.400;9.558;2024-01-30T12:06:17;101905.03;;;18.49;53.58
5812;BME280;2932;52.400;9.558;2024-01-30T12:08:43;101908.66;;;18.30;54.04
5812;BME280;2932;52.400;9.558;2024-01-30T12:11:09;101927.47;;;18.88;52.66
5812;BME280;2932;52.400;9.558;2024-01-30T12:13:35;101917.72;;;19.70;51.95
5812;BME280;2932;52.400;9.558;2024-01-30T12:16:00;101921.13;;;20.69;49.71
5812;BME280;2932;52.400;9.558;2024-01-30T12:18:26;101926.13;;;20.52;49.34
5812;BME280;2932;52.400;9.558;2024-01-30T12:21:05;101933.84;;;20.59;49.96
5812;BME280;2932;52.400;9.558;2024-01-30T12:23:34;101934.63;;;20.89;48.66
5812;BME280;2932;52.400;9.558;2024-01-30T12:26:05;101929.84;;;21.30;48.18
5812;BME280;2932;52.400;9.558;2024-01-30T12:28:33;101940.72;;;20.31;49.58
5812;BME280;2932;52.400;9.558;2024-01-30T12:31:02;101947.28;;;20.39;50.01
5812;BME280;2932;52.400;9.558;2024-01-30T12:33:28;101934.16;;;21.21;48.53
5812;BME280;2932;52.400;9.558;2024-01-30T12:35:54;101933.31;;;21.17;48.41
5812;BME280;2932;52.400;9.558;2024-01-30T12:38:19;101924.38;;;21.48;48.50
5812;BME280;2932;52.400;9.558;2024-01-30T12:40:45;101947.06;;;20.55;49.45
5812;BME280;2932;52.400;9.558;2024-01-30T12:43:10;101950.59;;;19.69;51.31
5812;BME280;2932;52.400;9.558;2024-01-30T12:45:36;101956.31;;;19.30;51.95
5812;BME280;2932;52.400;9.558;2024-01-30T12:48:01;101953.81;;;19.25;52.45
5812;BME280;2932;52.400;9.558;2024-01-30T12:50:30;101950.72;;;18.69;53.39
5812;BME280;2932;52.400;9.558;2024-01-30T12:52:55;101953.06;;;18.13;54.52
5812;BME280;2932;52.400;9.558;2024-01-30T12:55:21;101953.63;;;18.03;54.44
5812;BME280;2932;52.400;9.558;2024-01-30T12:57:46;101949.41;;;17.93;55.12
5812;BME280;2932;52.400;9.558;2024-01-30T13:00:11;101944.47;;;18.21;54.86
5812;BME280;2932;52.400;9.558;2024-01-30T13:02:37;101925.63;;;18.38;54.80
5812;BME280;2932;52.400;9.558;2024-01-30T13:05:04;101937.41;;;19.05;54.11
5812;BME280;2932;52.400;9.558;2024-01-30T13:07:30;101942.41;;;18.73;53.30